createdAt,value
2018-07-07T00:00:59.210Z,20.37
2018-07-07T00:03:27.440Z,20.47
2018-07-07T00:05:55.743Z,20.40
2018-07-07T00:08:23.929Z,19.13
2018-07-07T00:10:56.084Z,21.10
2018-07-07T00:13:24.227Z,20.87
2018-07-07T00:15:52.783Z,23.97
2018-07-07T00:18:21.063Z,19.73
2018-07-07T00:20:49.684Z,21.83
2018-07-07T00:23:17.808Z,20.87
2018-07-07T00:25:46.073Z,20.60
2018-07-07T00:28:14.463Z,26.37
2018-07-07T00:30:42.680Z,21.80
2018-07-07T00:33:11.267Z,22.13
2018-07-07T00:35:39.539Z,21.93
2018-07-07T00:38:07.816Z,23.37
2018-07-07T00:40:36.024Z,22.50
2018-07-07T00:43:04.524Z,21.87
2018-07-07T00:45:32.675Z,22.73
2018-07-07T00:48:01.175Z,24.40
2018-07-07T00:50:29.322Z,24.63
2018-07-07T00:52:57.900Z,22.27
2018-07-07T00:55:26.091Z,23.17
2018-07-07T00:57:54.268Z,24.30
2018-07-07T01:00:22.860Z,24.63
2018-07-07T01:02:51.399Z,24.77
2018-07-07T01:05:27.983Z,24.80
2018-07-07T01:07:56.275Z,26.20
2018-07-07T01:10:24.550Z,24.53
2018-07-07T01:12:52.838Z,25.17
2018-07-07T01:15:21.115Z,26.53
2018-07-07T01:17:49.391Z,25.63
2018-07-07T01:20:17.801Z,25.30
2018-07-07T01:22:46.308Z,25.80
2018-07-07T01:25:14.516Z,26.67
2018-07-07T01:27:42.708Z,25.27
2018-07-07T01:30:11.200Z,26.20
2018-07-07T01:32:39.376Z,25.77
2018-07-07T01:35:07.873Z,26.27
2018-07-07T01:37:36.044Z,24.07
2018-07-07T01:40:04.242Z,26.50
2018-07-07T01:42:32.404Z,24.30
2018-07-07T01:45:00.761Z,26.33
2018-07-07T01:47:28.920Z,25.87
2018-07-07T01:49:57.118Z,26.57
2018-07-07T01:52:25.579Z,26.23
2018-07-07T01:54:53.852Z,27.73
2018-07-07T01:57:22.136Z,25.70
2018-07-07T01:59:50.408Z,25.27
2018-07-07T02:02:18.539Z,26.00
2018-07-07T02:04:46.685Z,26.77
2018-07-07T02:07:14.849Z,24.40
2018-07-07T02:09:43.003Z,24.97
2018-07-07T02:12:11.415Z,23.73
2018-07-07T02:14:39.660Z,25.10
2018-07-07T02:17:07.983Z,27.17
2018-07-07T02:19:36.187Z,25.90
2018-07-07T02:22:04.476Z,26.87
2018-07-07T02:24:32.682Z,26.60
2018-07-07T02:27:00.987Z,25.63
2018-07-07T02:29:29.134Z,26.13
2018-07-07T02:31:57.396Z,26.60
2018-07-07T02:34:25.691Z,26.10
2018-07-07T02:36:54.009Z,27.20
2018-07-07T02:39:22.254Z,24.97
2018-07-07T02:41:50.924Z,26.50
2018-07-07T02:44:19.144Z,26.53
2018-07-07T02:46:47.681Z,27.63
2018-07-07T02:49:15.860Z,26.80
2018-07-07T02:51:44.140Z,26.03
2018-07-07T02:54:12.341Z,26.37
2018-07-07T02:56:40.491Z,26.27
2018-07-07T02:59:08.683Z,26.77
2018-07-07T03:01:37.245Z,29.43
2018-07-07T03:04:05.648Z,26.17
2018-07-07T03:06:34.273Z,27.70
2018-07-07T03:09:02.800Z,26.63
2018-07-07T03:11:30.991Z,27.07
2018-07-07T03:13:59.183Z,26.93
2018-07-07T03:16:27.547Z,27.80
2018-07-07T03:18:55.940Z,27.87
2018-07-07T03:21:24.107Z,28.27
2018-07-07T03:23:52.255Z,28.37
2018-07-07T03:26:20.658Z,28.40
2018-07-07T03:28:48.830Z,27.97
2018-07-07T03:31:17.027Z,30.37
2018-07-07T03:33:45.178Z,27.40
2018-07-07T03:36:13.485Z,28.17
2018-07-07T03:38:41.624Z,27.40
2018-07-07T03:41:09.769Z,30.33
2018-07-07T03:43:38.356Z,26.57
2018-07-07T03:46:06.965Z,28.37
2018-07-07T03:48:35.164Z,28.30
2018-07-07T03:51:03.432Z,29.80
2018-07-07T03:53:31.618Z,28.97
2018-07-07T03:55:59.875Z,29.27
2018-07-07T03:58:28.060Z,28.83
2018-07-07T04:00:56.239Z,30.77
2018-07-07T04:03:24.701Z,28.77
2018-07-07T04:05:53.315Z,28.30
2018-07-07T04:08:21.506Z,26.93
2018-07-07T04:10:49.796Z,28.10
2018-07-07T04:13:17.923Z,26.83
2018-07-07T04:15:46.411Z,25.73
2018-07-07T04:18:19.365Z,25.67
2018-07-07T04:20:48.203Z,27.30
2018-07-07T04:23:16.773Z,28.07
2018-07-07T04:25:45.163Z,25.17
2018-07-07T04:28:13.839Z,26.27
2018-07-07T04:30:42.160Z,24.63
2018-07-07T04:33:10.595Z,25.67
2018-07-07T04:35:39.095Z,24.73
2018-07-07T04:38:07.313Z,26.07
2018-07-07T04:40:35.604Z,25.47
2018-07-07T04:43:03.829Z,24.37
2018-07-07T04:45:32.036Z,24.50
2018-07-07T04:48:00.192Z,23.60
2018-07-07T04:50:28.792Z,24.53
2018-07-07T04:52:57.376Z,23.30
2018-07-07T04:55:25.804Z,25.10
2018-07-07T04:57:54.097Z,25.03
2018-07-07T05:00:22.878Z,24.43
2018-07-07T05:02:51.072Z,24.83
2018-07-07T05:05:19.347Z,22.97
2018-07-07T05:07:47.636Z,23.93
2018-07-07T05:10:15.817Z,23.37
2018-07-07T05:12:43.975Z,23.50
2018-07-07T05:15:12.134Z,22.60
2018-07-07T05:17:40.325Z,25.10
2018-07-07T05:20:08.483Z,25.57
2018-07-07T05:22:36.697Z,24.77
2018-07-07T05:25:05.254Z,24.83
2018-07-07T05:27:33.764Z,25.40
2018-07-07T05:30:02.259Z,23.90
2018-07-07T05:32:30.653Z,24.20
2018-07-07T05:34:58.966Z,24.33
2018-07-07T05:37:27.568Z,22.20
2018-07-07T05:39:55.736Z,22.57
2018-07-07T05:42:24.083Z,22.83
2018-07-07T05:44:52.336Z,21.77
2018-07-07T05:47:20.576Z,21.97
2018-07-07T05:49:48.832Z,20.10
2018-07-07T05:52:17.823Z,22.33
2018-07-07T05:54:46.101Z,22.90
2018-07-07T05:57:14.339Z,23.50
2018-07-07T05:59:42.584Z,24.47
2018-07-07T06:02:10.743Z,22.47
2018-07-07T06:04:38.935Z,22.40
2018-07-07T06:07:07.091Z,21.47
2018-07-07T06:09:35.648Z,21.90
2018-07-07T06:12:04.363Z,21.50
2018-07-07T06:14:32.774Z,21.73
2018-07-07T06:17:01.085Z,21.93
2018-07-07T06:19:29.421Z,22.90
2018-07-07T06:21:57.729Z,23.93
2018-07-07T06:24:26.014Z,23.93
2018-07-07T06:27:00.928Z,21.90
2018-07-07T06:29:29.111Z,22.13
2018-07-07T06:31:57.644Z,22.03
2018-07-07T06:34:25.835Z,21.53
2018-07-07T06:36:54.487Z,22.97
2018-07-07T06:39:22.983Z,21.73
2018-07-07T06:41:51.896Z,23.17
2018-07-07T06:44:20.274Z,21.20
2018-07-07T06:46:48.549Z,20.23
2018-07-07T06:49:16.908Z,21.20
2018-07-07T06:51:45.119Z,20.23
2018-07-07T06:54:13.943Z,21.57
2018-07-07T06:56:42.089Z,19.57
2018-07-07T06:59:10.239Z,19.83
2018-07-07T07:01:38.457Z,21.40
2018-07-07T07:04:06.701Z,19.20
2018-07-07T07:06:34.954Z,19.73
2018-07-07T07:09:03.680Z,19.13
2018-07-07T07:11:31.870Z,19.93
2018-07-07T07:14:00.315Z,18.43
2018-07-07T07:16:28.600Z,18.80
2018-07-07T07:18:56.796Z,20.30
2018-07-07T07:21:24.931Z,18.90
2018-07-07T07:23:53.454Z,17.20
2018-07-07T07:26:22.049Z,14.90
2018-07-07T07:28:50.624Z,14.00
2018-07-07T07:31:18.990Z,13.50
2018-07-07T07:33:47.704Z,14.70
2018-07-07T07:36:20.299Z,12.27
2018-07-07T07:38:48.982Z,11.53
2018-07-07T07:41:17.195Z,12.60
2018-07-07T07:43:45.420Z,12.70
2018-07-07T07:46:13.599Z,11.90
2018-07-07T07:48:42.071Z,13.10
2018-07-07T07:51:10.251Z,11.87
2018-07-07T07:53:38.431Z,11.60
2018-07-07T07:56:07.008Z,13.10
2018-07-07T07:58:35.243Z,11.40
2018-07-07T08:01:03.431Z,11.10
2018-07-07T08:03:31.608Z,10.70
2018-07-07T08:05:59.800Z,9.53
2018-07-07T08:08:28.021Z,9.83
2018-07-07T08:10:56.427Z,9.57
2018-07-07T08:13:24.567Z,12.13
2018-07-07T08:15:52.869Z,10.60
2018-07-07T08:18:21.049Z,10.70
2018-07-07T08:20:49.312Z,11.43
2018-07-07T08:23:17.463Z,9.70
2018-07-07T08:25:45.680Z,10.30
2018-07-07T08:28:14.000Z,10.70
2018-07-07T08:30:42.351Z,11.20
2018-07-07T08:33:10.535Z,11.03
2018-07-07T08:35:38.971Z,9.90
2018-07-07T08:38:07.146Z,10.50
2018-07-07T08:40:35.308Z,9.93
2018-07-07T08:43:03.845Z,9.23
2018-07-07T08:45:32.031Z,10.03
2018-07-07T08:48:00.204Z,10.40
2018-07-07T08:50:28.360Z,14.73
2018-07-07T08:52:56.679Z,10.00
2018-07-07T08:55:24.908Z,10.27
2018-07-07T08:57:53.085Z,9.63
2018-07-07T09:00:21.240Z,9.60
2018-07-07T09:02:49.468Z,10.67
2018-07-07T09:05:17.640Z,10.30
2018-07-07T09:07:45.942Z,11.17
2018-07-07T09:10:14.345Z,9.37
2018-07-07T09:12:42.559Z,9.67
2018-07-07T09:15:10.765Z,10.13
2018-07-07T09:17:38.932Z,12.17
2018-07-07T09:20:07.311Z,11.80
2018-07-07T09:22:35.567Z,11.83
2018-07-07T09:25:03.791Z,12.80
2018-07-07T09:27:31.992Z,11.63
2018-07-07T09:30:00.453Z,12.70
2018-07-07T09:32:28.621Z,12.93
2018-07-07T09:34:56.880Z,13.53
2018-07-07T09:37:25.308Z,13.77
2018-07-07T09:39:53.536Z,14.50
2018-07-07T09:42:21.830Z,14.93
2018-07-07T09:44:50.504Z,12.57
2018-07-07T09:47:18.999Z,13.43
2018-07-07T09:49:47.304Z,12.37
2018-07-07T09:52:15.478Z,14.60
2018-07-07T09:54:43.762Z,13.03
2018-07-07T09:57:12.021Z,16.10
2018-07-07T09:59:40.436Z,15.60
2018-07-07T10:02:08.932Z,16.47
2018-07-07T10:04:37.276Z,17.60
2018-07-07T10:07:05.664Z,17.50
2018-07-07T10:09:33.964Z,16.80
2018-07-07T10:12:02.672Z,18.20
2018-07-07T10:14:30.861Z,17.97
2018-07-07T10:16:59.033Z,19.23
2018-07-07T10:19:27.226Z,16.40
2018-07-07T10:21:55.794Z,15.80
2018-07-07T10:24:24.718Z,16.93
2018-07-07T10:26:52.911Z,14.60
2018-07-07T10:29:21.104Z,15.10
2018-07-07T10:31:49.331Z,14.37
2018-07-07T10:34:17.648Z,16.23
2018-07-07T10:36:45.905Z,16.10
2018-07-07T10:39:14.094Z,16.20
2018-07-07T10:41:42.249Z,14.87
2018-07-07T10:44:10.788Z,13.30
2018-07-07T10:46:39.066Z,14.53
2018-07-07T10:49:07.669Z,13.80
2018-07-07T10:51:36.081Z,13.53
2018-07-07T10:54:04.336Z,12.73
2018-07-07T10:56:32.630Z,12.93
2018-07-07T10:59:01.174Z,14.07
2018-07-07T11:01:29.389Z,14.10
2018-07-07T11:03:57.541Z,14.23
2018-07-07T11:06:25.760Z,14.83
2018-07-07T11:08:53.940Z,13.30
2018-07-07T11:11:22.109Z,15.10
2018-07-07T11:13:50.332Z,11.93
2018-07-07T11:16:18.568Z,14.13
2018-07-07T11:18:46.763Z,13.27
2018-07-07T11:21:15.000Z,13.40
2018-07-07T11:23:43.263Z,12.90
2018-07-07T11:26:11.820Z,15.20
2018-07-07T11:28:40.125Z,12.00
2018-07-07T11:31:08.476Z,12.57
2018-07-07T11:33:36.712Z,12.77
2018-07-07T11:36:04.943Z,14.60
2018-07-07T11:38:33.144Z,16.10
2018-07-07T11:41:01.809Z,13.53
2018-07-07T11:43:29.995Z,13.57
2018-07-07T11:45:58.172Z,14.30
2018-07-07T11:48:26.526Z,13.00
2018-07-07T11:50:54.792Z,10.67
2018-07-07T11:53:23.013Z,11.83
2018-07-07T11:55:51.371Z,10.33
2018-07-07T11:58:19.971Z,11.23
2018-07-07T12:00:48.308Z,10.40
2018-07-07T12:03:16.760Z,10.67
2018-07-07T12:05:45.028Z,12.37
2018-07-07T12:08:14.405Z,11.47
2018-07-07T12:10:41.588Z,11.07
2018-07-07T12:13:10.230Z,12.17
2018-07-07T12:15:38.420Z,11.50
2018-07-07T12:18:06.582Z,11.07
2018-07-07T12:20:35.039Z,11.90
2018-07-07T12:23:03.269Z,13.13
2018-07-07T12:25:31.533Z,12.53
2018-07-07T12:27:59.811Z,10.93
2018-07-07T12:30:27.967Z,11.10
2018-07-07T12:32:56.497Z,12.57
2018-07-07T12:35:24.691Z,12.03
2018-07-07T12:37:52.924Z,11.93
2018-07-07T12:40:21.123Z,11.00
2018-07-07T12:42:49.550Z,11.20
2018-07-07T12:45:17.707Z,11.20
2018-07-07T12:47:45.992Z,11.83
2018-07-07T12:50:14.518Z,12.07
2018-07-07T12:52:42.840Z,12.47
2018-07-07T12:55:11.149Z,12.97
2018-07-07T12:57:39.423Z,11.60
2018-07-07T13:00:07.640Z,14.00
2018-07-07T13:02:35.988Z,13.77
2018-07-07T13:05:04.472Z,13.23
2018-07-07T13:07:32.696Z,13.97
2018-07-07T13:10:00.856Z,14.67
2018-07-07T13:12:29.175Z,14.73
2018-07-07T13:14:57.423Z,13.90
2018-07-07T13:17:25.752Z,13.67
2018-07-07T13:19:53.923Z,14.10
2018-07-07T13:22:22.120Z,14.30
2018-07-07T13:24:52.036Z,13.10
2018-07-07T13:27:20.183Z,14.37
2018-07-07T13:29:48.361Z,15.23
2018-07-07T13:32:16.562Z,15.00
2018-07-07T13:34:44.766Z,14.00
2018-07-07T13:37:12.915Z,14.17
2018-07-07T13:39:42.580Z,13.67
2018-07-07T13:42:12.220Z,13.63
2018-07-07T13:44:41.006Z,14.20
2018-07-07T13:47:09.411Z,12.87
2018-07-07T13:49:38.452Z,11.40
2018-07-07T13:52:06.832Z,11.03
2018-07-07T13:54:35.219Z,12.67
2018-07-07T13:57:03.408Z,12.17
2018-07-07T13:59:31.615Z,13.10
2018-07-07T14:01:59.779Z,12.00
2018-07-07T14:04:28.007Z,11.60
2018-07-07T14:06:56.251Z,12.00
2018-07-07T14:09:24.584Z,11.50
2018-07-07T14:11:52.973Z,10.77
2018-07-07T14:14:21.170Z,9.60
2018-07-07T14:16:49.749Z,10.77
2018-07-07T14:19:18.112Z,11.10
2018-07-07T14:21:46.308Z,10.50
2018-07-07T14:24:14.464Z,9.97
2018-07-07T14:26:42.856Z,10.87
2018-07-07T14:29:11.140Z,11.63
2018-07-07T14:31:39.665Z,10.57
2018-07-07T14:34:08.301Z,10.40
2018-07-07T14:36:36.566Z,11.10
2018-07-07T14:39:05.692Z,10.70
2018-07-07T14:41:33.903Z,10.97
2018-07-07T14:44:04.476Z,10.03
2018-07-07T14:46:33.496Z,11.33
2018-07-07T14:49:01.989Z,10.30
2018-07-07T14:51:30.399Z,11.60
2018-07-07T14:53:58.576Z,10.70
2018-07-07T14:56:27.390Z,10.40
2018-07-07T14:58:56.119Z,10.87
2018-07-07T15:01:24.290Z,10.73
2018-07-07T15:03:52.484Z,10.10
2018-07-07T15:06:20.666Z,9.37
2018-07-07T15:08:49.028Z,9.93
2018-07-07T15:11:17.195Z,8.60
2018-07-07T15:13:47.302Z,9.67
2018-07-07T15:16:15.554Z,9.13
2018-07-07T15:18:43.916Z,9.97
2018-07-07T15:21:12.152Z,10.23
2018-07-07T15:23:40.315Z,9.23
2018-07-07T15:26:08.479Z,10.47
2018-07-07T15:28:36.653Z,9.00
2018-07-07T15:31:04.827Z,8.80
2018-07-07T15:33:33.126Z,8.53
2018-07-07T15:36:01.275Z,9.30
2018-07-07T15:38:29.475Z,9.50
2018-07-07T15:40:57.680Z,9.00
2018-07-07T15:43:25.851Z,9.33
2018-07-07T15:45:54.055Z,8.23
2018-07-07T15:48:22.875Z,8.63
2018-07-07T15:50:51.028Z,8.10
2018-07-07T15:53:19.212Z,6.83
2018-07-07T15:55:47.379Z,7.90
2018-07-07T15:58:15.530Z,10.13
2018-07-07T16:00:43.689Z,8.53
2018-07-07T16:03:11.872Z,8.63
2018-07-07T16:05:40.101Z,8.80
2018-07-07T16:08:08.258Z,8.27
2018-07-07T16:10:36.404Z,8.03
2018-07-07T16:13:04.615Z,7.90
2018-07-07T16:15:32.803Z,11.23
2018-07-07T16:18:00.988Z,10.13
2018-07-07T16:20:29.139Z,9.47
2018-07-07T16:22:57.577Z,8.67
2018-07-07T16:25:25.720Z,9.20
2018-07-07T16:27:53.850Z,9.93
2018-07-07T16:30:22.036Z,9.63
2018-07-07T16:32:50.193Z,10.10
2018-07-07T16:35:18.463Z,9.77
2018-07-07T16:37:46.720Z,10.73
2018-07-07T16:40:14.890Z,9.60
2018-07-07T16:42:43.076Z,11.10
2018-07-07T16:45:11.414Z,9.50
2018-07-07T16:47:39.582Z,9.93
2018-07-07T16:50:07.754Z,11.47
2018-07-07T16:52:35.983Z,10.43
2018-07-07T16:55:04.172Z,10.87
2018-07-07T16:57:32.360Z,10.83
2018-07-07T17:00:00.808Z,11.40
2018-07-07T17:02:29.324Z,11.83
2018-07-07T17:04:57.740Z,11.57
2018-07-07T17:07:25.906Z,10.70
2018-07-07T17:09:54.083Z,10.33
2018-07-07T17:12:22.433Z,12.40
2018-07-07T17:14:50.740Z,11.30
2018-07-07T17:17:19.352Z,11.10
2018-07-07T17:19:47.647Z,10.20
2018-07-07T17:22:16.120Z,11.87
2018-07-07T17:24:44.299Z,10.27
2018-07-07T17:27:12.555Z,10.80
2018-07-07T17:29:41.052Z,11.10
2018-07-07T17:32:09.192Z,10.47
2018-07-07T17:34:37.380Z,11.50
2018-07-07T17:37:05.542Z,11.57
2018-07-07T17:39:34.053Z,11.70
2018-07-07T17:42:02.261Z,10.53
2018-07-07T17:44:30.510Z,12.13
2018-07-07T17:46:59.422Z,12.47
2018-07-07T17:49:27.604Z,12.73
2018-07-07T17:51:56.017Z,11.63
2018-07-07T17:54:24.156Z,11.10
2018-07-07T17:56:52.346Z,11.60
2018-07-07T17:59:21.236Z,10.90
2018-07-07T18:01:49.523Z,12.00
2018-07-07T18:04:17.783Z,12.17
2018-07-07T18:06:45.957Z,11.90
2018-07-07T18:09:14.337Z,12.23
2018-07-07T18:11:42.978Z,11.90
2018-07-07T18:14:11.236Z,10.50
2018-07-07T18:16:39.526Z,12.73
2018-07-07T18:19:07.718Z,12.10
2018-07-07T18:21:36.218Z,12.13
2018-07-07T18:24:04.472Z,12.50
2018-07-07T18:26:32.664Z,12.30
2018-07-07T18:29:00.915Z,11.53
2018-07-07T18:31:29.136Z,12.10
2018-07-07T18:33:57.283Z,12.63
2018-07-07T18:36:25.799Z,11.83
2018-07-07T18:38:54.010Z,12.53
2018-07-07T18:41:22.201Z,11.80
2018-07-07T18:43:50.395Z,12.60
2018-07-07T18:46:18.575Z,11.80
2018-07-07T18:48:46.850Z,12.90
2018-07-07T18:51:15.169Z,14.57
2018-07-07T18:53:43.532Z,13.37
2018-07-07T18:56:11.731Z,12.87
2018-07-07T18:58:40.045Z,13.33
2018-07-07T19:01:08.800Z,12.80
2018-07-07T19:03:36.971Z,14.57
2018-07-07T19:06:05.309Z,13.17
2018-07-07T19:08:33.465Z,14.60
2018-07-07T19:11:01.604Z,16.43
2018-07-07T19:13:30.172Z,15.07
2018-07-07T19:15:58.411Z,53.70
2018-07-07T19:18:26.605Z,19.90
2018-07-07T19:21:01.181Z,20.03
2018-07-07T19:23:35.390Z,18.47
2018-07-07T19:26:09.414Z,16.90
2018-07-07T19:28:37.655Z,16.90
2018-07-07T19:31:06.641Z,26.00
2018-07-07T19:33:40.163Z,23.87
2018-07-07T19:36:13.650Z,53.30
2018-07-07T19:38:42.196Z,16.50
2018-07-07T19:41:10.367Z,14.50
2018-07-07T19:43:38.709Z,15.37
2018-07-07T19:46:06.892Z,15.00
2018-07-07T19:48:35.379Z,15.00
2018-07-07T19:51:03.662Z,16.40
2018-07-07T19:53:31.957Z,17.97
2018-07-07T19:56:00.385Z,19.77
2018-07-07T19:58:28.643Z,17.57
2018-07-07T20:00:57.144Z,19.40
2018-07-07T20:03:25.314Z,24.03
2018-07-07T20:05:53.564Z,24.23
2018-07-07T20:08:21.733Z,20.07
2018-07-07T20:10:50.008Z,19.60
2018-07-07T20:13:18.265Z,18.10
2018-07-07T20:15:52.119Z,19.60
2018-07-07T20:18:20.461Z,19.07
2018-07-07T20:22:02.600Z,18.53
2018-07-07T20:24:33.517Z,23.80
2018-07-07T20:27:07.141Z,25.03
2018-07-07T20:29:35.409Z,18.97
2018-07-07T20:32:07.904Z,18.90
2018-07-07T20:34:36.145Z,18.73
2018-07-07T20:37:04.690Z,18.13
2018-07-07T20:39:32.856Z,21.00
2018-07-07T20:42:01.011Z,19.57
2018-07-07T20:44:29.175Z,19.67
2018-07-07T20:46:57.526Z,18.90
2018-07-07T20:49:25.823Z,19.67
2018-07-07T20:51:53.994Z,18.90
2018-07-07T20:54:22.392Z,21.90
2018-07-07T20:56:50.598Z,30.20
2018-07-07T20:59:19.564Z,28.77
2018-07-07T21:01:48.212Z,18.27
2018-07-07T21:04:16.619Z,20.77
2018-07-07T21:06:44.772Z,18.37
2018-07-07T21:09:12.936Z,19.20
2018-07-07T21:11:41.107Z,19.20
2018-07-07T21:14:09.308Z,20.80
2018-07-07T21:16:37.460Z,19.27
2018-07-07T21:19:05.679Z,20.23
2018-07-07T21:21:33.948Z,20.80
2018-07-07T21:24:02.204Z,20.07
2018-07-07T21:26:30.479Z,21.03
2018-07-07T21:28:58.735Z,20.53
2018-07-07T21:31:27.064Z,22.00
2018-07-07T21:33:55.340Z,24.60
2018-07-07T21:36:23.608Z,24.30
2018-07-07T21:38:52.082Z,25.10
2018-07-07T21:41:20.283Z,25.63
2018-07-07T21:43:48.469Z,24.20
2018-07-07T21:46:16.731Z,25.40
2018-07-07T21:48:44.896Z,26.03
2018-07-07T21:51:13.608Z,26.60
2018-07-07T21:53:41.835Z,26.80
2018-07-07T21:56:10.531Z,25.80
2018-07-07T21:58:38.737Z,22.80
2018-07-07T22:01:15.305Z,24.13
2018-07-07T22:03:48.912Z,24.63
2018-07-07T22:06:22.323Z,23.17
2018-07-07T22:08:50.524Z,23.37
2018-07-07T22:11:18.736Z,21.57
2018-07-07T22:13:46.913Z,22.83
2018-07-07T22:16:15.392Z,23.27
2018-07-07T22:18:43.585Z,23.10
2018-07-07T22:21:17.343Z,22.03
2018-07-07T22:23:45.539Z,21.60
2018-07-07T22:26:14.488Z,23.13
2018-07-07T22:28:42.821Z,20.73
2018-07-07T22:31:11.016Z,22.27
2018-07-07T22:33:39.203Z,21.03
2018-07-07T22:36:13.347Z,19.43
2018-07-07T22:38:46.912Z,20.97
2018-07-07T22:41:15.219Z,22.03
2018-07-07T22:43:43.359Z,21.70
2018-07-07T22:46:11.647Z,21.60
2018-07-07T22:48:39.775Z,20.83
2018-07-07T22:51:08.536Z,21.10
2018-07-07T22:53:36.732Z,21.17
2018-07-07T22:56:05.060Z,23.73
2018-07-07T22:58:33.265Z,21.33
2018-07-07T23:01:01.612Z,22.70
2018-07-07T23:03:29.773Z,20.50
2018-07-07T23:05:57.977Z,21.13
2018-07-07T23:08:26.540Z,20.20
2018-07-07T23:10:54.785Z,20.63
2018-07-07T23:13:23.035Z,20.67
2018-07-07T23:15:51.215Z,19.03
2018-07-07T23:18:19.389Z,18.83
2018-07-07T23:20:47.622Z,18.47
2018-07-07T23:23:15.864Z,19.10
2018-07-07T23:25:44.104Z,19.57
2018-07-07T23:28:12.372Z,19.00
2018-07-07T23:30:40.545Z,19.77
2018-07-07T23:33:08.706Z,18.40
2018-07-07T23:35:37.279Z,19.20
2018-07-07T23:38:05.807Z,18.10
2018-07-07T23:40:34.035Z,16.07
2018-07-07T23:43:02.199Z,16.20
2018-07-07T23:45:30.536Z,15.73
2018-07-07T23:47:58.668Z,14.30
2018-07-07T23:50:26.832Z,13.50
2018-07-07T23:52:55.012Z,14.03
2018-07-07T23:55:23.179Z,13.73
2018-07-07T23:57:51.324Z,13.73
